createdAt,value
2022-12-20T00:01:33.672Z,80.53
2022-12-20T00:04:05.051Z,80.62
2022-12-20T00:06:36.600Z,80.60
2022-12-20T00:09:09.523Z,80.67
2022-12-20T00:11:40.601Z,80.75
2022-12-20T00:14:10.748Z,80.70
2022-12-20T00:16:38.886Z,80.66
2022-12-20T00:19:09.054Z,80.77
2022-12-20T00:21:37.660Z,80.77
2022-12-20T00:24:07.119Z,81.20
2022-12-20T00:26:36.026Z,81.38
2022-12-20T00:29:05.584Z,81.28
2022-12-20T00:31:33.941Z,81.30
2022-12-20T00:34:02.056Z,81.19
2022-12-20T00:36:32.159Z,81.03
2022-12-20T00:39:01.218Z,81.12
2022-12-20T00:41:32.433Z,81.17
2022-12-20T00:44:02.153Z,81.27
2022-12-20T00:46:31.311Z,81.24
2022-12-20T00:49:00.383Z,81.25
2022-12-20T00:51:30.677Z,81.20
2022-12-20T00:53:58.811Z,81.05
2022-12-20T00:56:26.596Z,80.74
2022-12-20T00:58:59.649Z,80.63
2022-12-20T01:01:32.789Z,80.75
2022-12-20T01:04:01.430Z,80.80
2022-12-20T01:06:30.623Z,80.90
2022-12-20T01:08:59.008Z,81.02
2022-12-20T01:11:31.330Z,81.08
2022-12-20T01:14:02.794Z,81.12
2022-12-20T01:16:35.499Z,81.16
2022-12-20T01:19:04.070Z,81.24
2022-12-20T01:21:32.144Z,81.25
2022-12-20T01:23:59.873Z,81.33
2022-12-20T01:26:29.822Z,81.23
2022-12-20T01:29:00.383Z,81.18
2022-12-20T01:31:29.716Z,81.19
2022-12-20T01:33:58.194Z,81.14
2022-12-20T01:36:30.753Z,81.16
2022-12-20T01:39:07.910Z,81.30
2022-12-20T01:41:37.401Z,81.26
2022-12-20T01:44:18.774Z,81.29
2022-12-20T01:46:48.907Z,81.27
2022-12-20T01:49:33.582Z,81.14
2022-12-20T01:52:12.098Z,81.17
2022-12-20T01:54:45.262Z,81.07
2022-12-20T01:57:27.156Z,80.99
2022-12-20T01:59:56.884Z,81.14
2022-12-20T02:02:25.273Z,81.14
2022-12-20T02:04:53.353Z,81.25
2022-12-20T02:07:24.982Z,81.08
2022-12-20T02:09:55.696Z,81.08
2022-12-20T02:12:26.530Z,81.03
2022-12-20T02:15:36.543Z,81.04
2022-12-20T02:18:25.112Z,81.12
2022-12-20T02:21:16.026Z,81.17
2022-12-20T02:24:20.758Z,81.18
2022-12-20T02:27:31.580Z,81.25
2022-12-20T02:30:13.955Z,81.28
2022-12-20T02:33:04.607Z,81.41
2022-12-20T02:35:36.128Z,81.32
2022-12-20T02:38:25.987Z,81.32
2022-12-20T02:41:01.867Z,81.48
2022-12-20T02:43:50.104Z,81.51
2022-12-20T02:46:20.867Z,81.37
2022-12-20T02:48:51.101Z,81.38
2022-12-20T02:51:22.235Z,81.34
2022-12-20T02:53:52.199Z,81.39
2022-12-20T02:56:28.457Z,81.36
2022-12-20T02:59:07.211Z,81.27
2022-12-20T03:01:43.721Z,81.22
2022-12-20T03:04:13.192Z,81.25
2022-12-20T03:07:05.876Z,81.28
2022-12-20T03:09:37.216Z,81.19
2022-12-20T03:12:06.158Z,81.10
2022-12-20T03:14:35.763Z,80.95
2022-12-20T03:17:07.081Z,80.95
2022-12-20T03:19:34.868Z,80.80
2022-12-20T03:22:02.793Z,80.83
2022-12-20T03:24:32.093Z,80.84
2022-12-20T03:27:00.417Z,80.94
2022-12-20T03:29:28.066Z,81.03
2022-12-20T03:31:55.753Z,80.91
2022-12-20T03:34:23.824Z,80.91
2022-12-20T03:36:51.879Z,81.01
2022-12-20T03:39:20.018Z,81.10
2022-12-20T03:41:49.691Z,81.33
2022-12-20T03:44:18.365Z,81.37
2022-12-20T03:46:46.249Z,81.25
2022-12-20T03:49:13.988Z,81.10
2022-12-20T03:51:43.611Z,80.93
2022-12-20T03:54:11.689Z,80.95
2022-12-20T03:56:44.217Z,80.87
2022-12-20T03:59:11.956Z,80.90
2022-12-20T04:01:40.767Z,80.82
2022-12-20T04:04:12.328Z,80.84
2022-12-20T04:06:40.334Z,81.01
2022-12-20T04:09:08.127Z,81.04
2022-12-20T04:11:38.953Z,81.06
2022-12-20T04:14:08.615Z,80.96
2022-12-20T04:16:36.689Z,81.07
2022-12-20T04:19:05.449Z,81.18
2022-12-20T04:21:37.927Z,81.19
2022-12-20T04:24:07.970Z,81.18
2022-12-20T04:26:43.733Z,81.06
2022-12-20T04:29:11.822Z,81.14
2022-12-20T04:31:40.420Z,81.17
2022-12-20T04:34:08.246Z,81.14
2022-12-20T04:36:36.519Z,81.16
2022-12-20T04:39:06.207Z,81.25
2022-12-20T04:41:35.743Z,81.32
2022-12-20T04:44:05.213Z,81.29
2022-12-20T04:46:35.114Z,81.32
2022-12-20T04:49:03.153Z,81.36
2022-12-20T04:51:32.371Z,81.31
2022-12-20T04:54:00.191Z,81.36
2022-12-20T04:56:32.646Z,81.41
2022-12-20T04:59:02.891Z,81.35
2022-12-20T05:01:31.256Z,81.38
2022-12-20T05:03:59.000Z,81.48
2022-12-20T05:06:28.651Z,81.45
2022-12-20T05:08:56.719Z,81.55
2022-12-20T05:11:25.192Z,81.61
2022-12-20T05:13:53.218Z,81.59
2022-12-20T05:16:21.022Z,81.53
2022-12-20T05:18:49.890Z,81.53
2022-12-20T05:21:36.230Z,81.54
2022-12-20T05:24:23.789Z,81.62
2022-12-20T05:27:02.204Z,81.65
2022-12-20T05:29:30.312Z,81.52
2022-12-20T05:31:58.326Z,81.37
2022-12-20T05:34:26.352Z,81.24
2022-12-20T05:36:54.726Z,81.19
2022-12-20T05:39:23.836Z,81.04
2022-12-20T05:41:53.606Z,81.02
2022-12-20T05:44:22.735Z,81.13
2022-12-20T05:46:52.469Z,81.12
2022-12-20T05:49:22.055Z,81.19
2022-12-20T05:51:50.093Z,81.32
2022-12-20T05:54:19.905Z,81.28
2022-12-20T05:57:05.556Z,81.40
2022-12-20T05:59:37.961Z,81.26
2022-12-20T06:02:07.078Z,81.22
2022-12-20T06:04:36.017Z,81.37
2022-12-20T06:07:05.882Z,81.19
2022-12-20T06:09:33.941Z,80.95
2022-12-20T06:12:04.439Z,80.85
2022-12-20T06:14:33.561Z,81.09
2022-12-20T06:17:02.588Z,81.09
2022-12-20T06:19:31.664Z,81.10
2022-12-20T06:22:00.634Z,80.98
2022-12-20T06:24:30.319Z,80.89
2022-12-20T06:26:58.162Z,80.99
2022-12-20T06:29:31.918Z,81.01
2022-12-20T06:32:05.013Z,81.12
2022-12-20T06:34:33.839Z,81.65
2022-12-20T06:37:05.685Z,81.50
2022-12-20T06:39:40.157Z,80.67
2022-12-20T06:42:18.827Z,80.12
2022-12-20T06:44:47.907Z,79.92
2022-12-20T06:47:16.382Z,79.33
2022-12-20T06:49:44.289Z,78.40
2022-12-20T06:52:13.948Z,77.93
2022-12-20T06:54:46.292Z,77.24
2022-12-20T06:57:14.478Z,74.70
2022-12-20T06:59:43.483Z,73.70
2022-12-20T07:02:13.901Z,74.02
2022-12-20T07:04:41.986Z,74.01
2022-12-20T07:07:12.062Z,73.06
2022-12-20T07:09:40.989Z,72.12
2022-12-20T07:12:10.195Z,72.67
2022-12-20T07:14:37.881Z,72.94
2022-12-20T07:17:07.119Z,72.81
2022-12-20T07:19:37.681Z,72.41
2022-12-20T07:22:06.089Z,71.19
2022-12-20T07:24:34.299Z,69.86
2022-12-20T07:27:04.278Z,71.28
2022-12-20T07:29:32.358Z,71.74
2022-12-20T07:32:00.452Z,71.40
2022-12-20T07:34:28.120Z,70.86
2022-12-20T07:36:57.840Z,70.46
2022-12-20T07:39:25.928Z,69.92
2022-12-20T07:41:54.984Z,70.38
2022-12-20T07:44:23.818Z,70.36
2022-12-20T07:46:51.570Z,70.47
2022-12-20T07:49:19.395Z,70.49
2022-12-20T07:51:51.438Z,70.65
2022-12-20T07:54:27.727Z,70.52
2022-12-20T07:57:00.945Z,70.57
2022-12-20T07:59:36.334Z,70.34
2022-12-20T08:02:05.146Z,69.77
2022-12-20T08:04:34.022Z,69.84
2022-12-20T08:07:03.090Z,70.07
2022-12-20T08:09:35.097Z,69.89
2022-12-20T08:12:03.235Z,69.43
2022-12-20T08:14:31.885Z,68.66
2022-12-20T08:16:59.966Z,68.82
2022-12-20T08:19:32.254Z,68.69
2022-12-20T08:21:57.241Z,68.07
2022-12-20T08:24:25.586Z,68.20
2022-12-20T08:26:53.229Z,68.46
2022-12-20T08:29:21.148Z,67.33
2022-12-20T08:31:50.621Z,67.28
2022-12-20T08:34:18.709Z,67.92
2022-12-20T08:36:46.590Z,67.91
2022-12-20T08:39:14.192Z,68.24
2022-12-20T08:41:41.889Z,68.18
2022-12-20T08:44:10.347Z,67.61
2022-12-20T08:46:38.518Z,68.20
2022-12-20T08:49:06.579Z,68.41
2022-12-20T08:51:34.238Z,68.28
2022-12-20T08:54:03.825Z,67.96
2022-12-20T08:56:31.610Z,68.21
2022-12-20T08:58:59.277Z,68.63
2022-12-20T09:01:28.887Z,68.71
2022-12-20T09:03:56.695Z,68.78
2022-12-20T09:06:24.822Z,68.94
2022-12-20T09:08:52.554Z,68.83
2022-12-20T09:11:25.774Z,68.71
2022-12-20T09:13:56.085Z,68.60
2022-12-20T09:16:27.792Z,68.48
2022-12-20T09:19:05.423Z,68.63
2022-12-20T09:21:30.904Z,67.96
2022-12-20T09:23:58.708Z,67.61
2022-12-20T09:26:27.038Z,67.52
2022-12-20T09:28:55.047Z,67.60
2022-12-20T09:31:26.392Z,66.66
2022-12-20T09:33:57.300Z,66.42
2022-12-20T09:36:27.620Z,66.54
2022-12-20T09:38:55.585Z,67.02
2022-12-20T09:41:40.231Z,66.41
2022-12-20T09:44:13.430Z,65.89
2022-12-20T09:46:42.669Z,66.02
2022-12-20T09:49:17.768Z,66.38
2022-12-20T09:52:19.733Z,66.56
2022-12-20T09:55:23.325Z,67.06
2022-12-20T09:58:22.882Z,66.96
2022-12-20T10:00:54.215Z,66.63
2022-12-20T10:03:32.903Z,66.79
2022-12-20T10:06:34.743Z,66.79
2022-12-20T10:09:05.852Z,66.39
2022-12-20T10:11:50.924Z,66.38
2022-12-20T10:14:55.841Z,65.80
2022-12-20T10:17:46.883Z,65.62
2022-12-20T10:20:35.063Z,65.66
2022-12-20T10:23:44.389Z,64.05
2022-12-20T10:26:13.525Z,64.38
2022-12-20T10:28:41.285Z,64.88
2022-12-20T10:31:13.563Z,64.70
2022-12-20T10:33:42.504Z,64.92
2022-12-20T10:36:30.025Z,64.87
2022-12-20T10:39:00.946Z,65.14
2022-12-20T10:41:42.603Z,64.81
2022-12-20T10:44:26.168Z,64.57
2022-12-20T10:46:59.712Z,64.98
2022-12-20T10:49:36.451Z,64.84
2022-12-20T10:52:14.176Z,64.66
2022-12-20T10:54:46.178Z,64.27
2022-12-20T10:57:34.857Z,64.39
2022-12-20T11:00:08.362Z,64.49
2022-12-20T11:02:42.472Z,64.69
2022-12-20T11:05:17.222Z,64.33
2022-12-20T11:10:32.841Z,65.41
2022-12-20T11:13:03.057Z,65.69
2022-12-20T11:15:35.071Z,65.22
2022-12-20T11:18:17.022Z,64.97
2022-12-20T11:21:00.406Z,65.05
2022-12-20T11:23:57.852Z,65.00
2022-12-20T11:26:42.899Z,65.18
2022-12-20T11:29:31.181Z,65.26
2022-12-20T11:32:44.578Z,65.42
2022-12-20T11:35:35.044Z,65.24
2022-12-20T11:38:20.034Z,65.26
2022-12-20T11:40:55.579Z,65.23
2022-12-20T11:44:15.860Z,65.17
2022-12-20T11:46:34.267Z,64.27
2022-12-20T11:50:00.545Z,64.52
2022-12-20T11:52:48.383Z,64.77
2022-12-20T11:55:24.640Z,63.80
2022-12-20T11:58:21.696Z,64.25
2022-12-20T12:00:37.226Z,64.00
2022-12-20T12:03:16.639Z,64.05
2022-12-20T12:05:48.914Z,63.95
2022-12-20T12:08:34.634Z,63.89
2022-12-20T12:11:39.921Z,64.07
2022-12-20T12:13:44.617Z,63.63
2022-12-20T12:16:20.382Z,63.46
2022-12-20T12:18:48.679Z,63.11
2022-12-20T12:21:35.815Z,63.38
2022-12-20T12:24:38.208Z,63.12
2022-12-20T12:27:15.766Z,63.56
2022-12-20T12:29:39.784Z,62.90
2022-12-20T12:32:25.321Z,63.28
2022-12-20T12:35:23.504Z,63.24
2022-12-20T12:38:27.098Z,63.14
2022-12-20T12:41:35.175Z,63.69
2022-12-20T12:44:34.160Z,63.75
2022-12-20T12:47:06.674Z,63.98
2022-12-20T12:49:34.860Z,64.23
2022-12-20T12:52:04.951Z,64.35
2022-12-20T12:54:39.700Z,64.35
2022-12-20T12:57:14.516Z,64.11
2022-12-20T12:59:47.516Z,64.45
2022-12-20T13:02:20.866Z,64.70
2022-12-20T13:05:10.703Z,64.97
2022-12-20T13:07:44.146Z,65.11
2022-12-20T13:10:22.199Z,65.33
2022-12-20T13:12:58.311Z,65.18
2022-12-20T13:15:33.170Z,65.53
2022-12-20T13:18:10.926Z,65.70
2022-12-20T13:20:38.942Z,65.95
2022-12-20T13:23:18.869Z,66.19
2022-12-20T13:25:52.789Z,66.37
2022-12-20T13:28:29.367Z,66.35
2022-12-20T13:31:09.569Z,66.50
2022-12-20T13:33:48.581Z,66.72
2022-12-20T13:36:30.733Z,66.94
2022-12-20T13:39:23.382Z,67.32
2022-12-20T13:42:17.671Z,67.55
2022-12-20T13:44:47.200Z,67.71
2022-12-20T13:47:31.067Z,67.94
2022-12-20T13:50:20.685Z,68.11
2022-12-20T13:52:48.830Z,68.20
2022-12-20T13:55:24.242Z,68.42
2022-12-20T13:57:53.675Z,68.51
2022-12-20T14:00:26.629Z,68.64
2022-12-20T14:02:55.951Z,68.71
2022-12-20T14:05:26.398Z,68.80
2022-12-20T14:08:04.767Z,68.86
2022-12-20T14:10:35.010Z,68.92
2022-12-20T14:13:25.130Z,69.00
2022-12-20T14:15:54.041Z,69.12
2022-12-20T14:18:25.335Z,68.98
2022-12-20T14:21:04.537Z,68.92
2022-12-20T14:23:48.914Z,69.01
2022-12-20T14:26:25.258Z,69.11
2022-12-20T14:28:56.605Z,69.12
2022-12-20T14:31:40.605Z,69.20
2022-12-20T14:34:29.075Z,69.29
2022-12-20T14:36:56.497Z,69.31
2022-12-20T14:39:33.683Z,69.41
2022-12-20T14:42:13.310Z,69.48
2022-12-20T14:44:41.181Z,69.66
2022-12-20T14:47:25.474Z,69.79
2022-12-20T14:50:00.863Z,69.99
2022-12-20T14:52:39.146Z,70.16
2022-12-20T14:55:27.389Z,70.44
2022-12-20T14:57:56.973Z,70.55
2022-12-20T15:00:31.278Z,70.74
2022-12-20T15:03:13.455Z,70.78
2022-12-20T15:05:51.055Z,70.89
2022-12-20T15:08:31.574Z,70.97
2022-12-20T15:11:11.087Z,71.05
2022-12-20T15:13:43.169Z,71.30
2022-12-20T15:16:30.780Z,71.35
2022-12-20T15:19:01.463Z,71.52
2022-12-20T15:21:40.432Z,71.74
2022-12-20T15:24:22.858Z,71.79
2022-12-20T15:26:50.447Z,71.84
2022-12-20T15:29:24.673Z,71.98
2022-12-20T15:32:06.996Z,72.14
2022-12-20T15:34:37.846Z,72.16
2022-12-20T15:37:06.329Z,72.26
2022-12-20T15:39:34.403Z,72.33
2022-12-20T15:42:04.532Z,72.71
2022-12-20T15:44:35.465Z,72.77
2022-12-20T15:47:03.851Z,72.85
2022-12-20T15:49:32.738Z,72.80
2022-12-20T15:52:00.358Z,72.88
2022-12-20T15:54:32.322Z,72.92
2022-12-20T15:57:06.355Z,73.01
2022-12-20T15:59:59.647Z,73.27
2022-12-20T16:02:04.254Z,73.65
2022-12-20T16:04:32.245Z,73.80
2022-12-20T16:07:00.176Z,73.68
2022-12-20T16:09:27.944Z,73.75
2022-12-20T16:11:56.667Z,73.84
2022-12-20T16:14:26.481Z,73.86
2022-12-20T16:16:54.096Z,73.95
2022-12-20T16:19:21.783Z,74.14
2022-12-20T16:21:51.954Z,74.12
2022-12-20T16:24:20.989Z,74.30
2022-12-20T16:26:49.571Z,74.54
2022-12-20T16:29:17.331Z,74.53
2022-12-20T16:31:45.166Z,74.68
2022-12-20T16:34:16.440Z,74.72
2022-12-20T16:36:44.947Z,74.96
2022-12-20T16:39:12.461Z,75.19
2022-12-20T16:41:44.276Z,75.44
2022-12-20T16:44:16.716Z,75.53
2022-12-20T16:46:45.023Z,75.64
2022-12-20T16:49:20.080Z,75.78
2022-12-20T16:51:45.869Z,76.07
2022-12-20T16:54:22.035Z,76.16
2022-12-20T16:56:53.835Z,76.01
2022-12-20T16:59:28.149Z,76.18
2022-12-20T17:01:57.337Z,76.28
2022-12-20T17:04:26.187Z,76.22
2022-12-20T17:06:55.633Z,76.32
2022-12-20T17:09:23.618Z,76.21
2022-12-20T17:11:51.356Z,76.36
2022-12-20T17:14:21.130Z,76.33
2022-12-20T17:16:49.448Z,76.28
2022-12-20T17:19:17.694Z,76.28
2022-12-20T17:24:34.825Z,76.52
2022-12-20T17:27:02.830Z,76.49
2022-12-20T17:29:30.626Z,76.62
2022-12-20T17:31:58.676Z,76.62
2022-12-20T17:34:30.206Z,76.63
2022-12-20T17:36:58.622Z,76.65
2022-12-20T17:39:26.690Z,76.77
2022-12-20T17:41:55.090Z,76.74
2022-12-20T17:44:28.634Z,76.84
2022-12-20T17:46:58.681Z,76.90
2022-12-20T17:49:26.707Z,76.93
2022-12-20T17:51:56.003Z,76.96
2022-12-20T17:54:26.220Z,77.07
2022-12-20T17:56:54.487Z,77.15
2022-12-20T17:59:28.027Z,76.97
2022-12-20T18:01:55.924Z,77.13
2022-12-20T18:04:23.765Z,77.31
2022-12-20T18:06:51.757Z,77.27
2022-12-20T18:09:21.343Z,77.42
2022-12-20T18:11:49.311Z,77.34
2022-12-20T18:14:17.667Z,77.44
2022-12-20T18:16:45.559Z,77.42
2022-12-20T18:19:17.445Z,77.48
2022-12-20T18:21:45.195Z,77.66
2022-12-20T18:24:15.435Z,77.76
2022-12-20T18:26:44.369Z,77.70
2022-12-20T18:29:12.358Z,77.89
2022-12-20T18:31:40.079Z,77.99
2022-12-20T18:34:08.059Z,78.16
2022-12-20T18:36:37.683Z,78.16
2022-12-20T18:39:11.601Z,78.38
2022-12-20T18:41:41.571Z,78.55
2022-12-20T18:44:13.145Z,78.65
2022-12-20T18:46:46.651Z,78.84
2022-12-20T18:49:14.421Z,79.12
2022-12-20T18:51:44.526Z,79.09
2022-12-20T18:54:14.277Z,78.95
2022-12-20T18:56:42.000Z,79.04
2022-12-20T18:59:12.456Z,79.04
2022-12-20T19:01:42.198Z,79.03
2022-12-20T19:04:10.869Z,79.13
2022-12-20T19:06:39.246Z,79.04
2022-12-20T19:09:12.639Z,79.05
2022-12-20T19:11:41.410Z,79.28
2022-12-20T19:14:11.934Z,79.19
2022-12-20T19:16:43.327Z,79.25
2022-12-20T19:19:11.535Z,79.17
2022-12-20T19:21:41.779Z,79.26
2022-12-20T19:24:10.995Z,79.47
2022-12-20T19:26:39.289Z,79.56
2022-12-20T19:29:08.170Z,79.57
2022-12-20T19:31:37.719Z,79.61
2022-12-20T19:34:12.390Z,79.71
2022-12-20T19:36:43.575Z,79.83
2022-12-20T19:39:21.843Z,79.76
2022-12-20T19:42:21.651Z,79.92
2022-12-20T19:44:20.580Z,80.12
2022-12-20T19:46:49.265Z,79.92
2022-12-20T19:49:17.394Z,79.95
2022-12-20T19:51:47.910Z,79.93
2022-12-20T19:54:15.688Z,79.99
2022-12-20T19:56:43.918Z,80.10
2022-12-20T19:59:13.430Z,80.18
2022-12-20T20:01:41.074Z,80.13
2022-12-20T20:04:09.531Z,80.22
2022-12-20T20:06:37.368Z,80.27
2022-12-20T20:09:07.184Z,80.32
2022-12-20T20:11:34.944Z,80.33
2022-12-20T20:14:03.493Z,80.43
2022-12-20T20:16:31.968Z,80.50
2022-12-20T20:18:59.802Z,80.61
2022-12-20T20:21:29.125Z,80.73
2022-12-20T20:23:58.921Z,81.50
2022-12-20T20:26:29.139Z,81.32
2022-12-20T20:28:56.804Z,81.43
2022-12-20T20:31:25.043Z,81.34
2022-12-20T20:33:53.221Z,81.46
2022-12-20T20:36:23.619Z,81.82
2022-12-20T20:38:51.866Z,81.90
2022-12-20T20:41:20.094Z,81.79
2022-12-20T20:43:48.421Z,81.82
2022-12-20T20:46:17.281Z,81.73
2022-12-20T20:48:45.175Z,81.82
2022-12-20T20:51:13.921Z,81.77
2022-12-20T20:53:42.576Z,81.77
2022-12-20T20:56:11.235Z,81.37
2022-12-20T20:58:39.514Z,81.37
2022-12-20T21:01:08.952Z,81.44
2022-12-20T21:03:37.367Z,81.59
2022-12-20T21:06:37.288Z,81.68
2022-12-20T21:08:38.663Z,81.68
2022-12-20T21:11:08.254Z,81.74
2022-12-20T21:13:38.284Z,81.75
2022-12-20T21:16:17.785Z,81.80
2022-12-20T21:18:52.785Z,81.88
2022-12-20T21:21:21.198Z,82.03
2022-12-20T21:23:49.337Z,82.19
2022-12-20T21:26:20.491Z,82.19
2022-12-20T21:28:49.345Z,82.18
2022-12-20T21:31:19.076Z,82.18
2022-12-20T21:33:47.886Z,82.16
2022-12-20T21:36:18.847Z,82.21
2022-12-20T21:38:52.586Z,82.17
2022-12-20T21:41:27.344Z,82.17
2022-12-20T21:43:58.448Z,82.22
2022-12-20T21:46:29.475Z,82.23
2022-12-20T21:48:58.582Z,82.29
2022-12-20T21:51:28.073Z,82.19
2022-12-20T21:53:59.143Z,82.25
2022-12-20T21:56:31.661Z,82.19
2022-12-20T21:59:01.842Z,82.22
2022-12-20T22:01:30.929Z,82.33
2022-12-20T22:04:05.546Z,82.41
2022-12-20T22:06:34.933Z,82.41
2022-12-20T22:09:06.862Z,82.36
2022-12-20T22:11:36.852Z,82.29
2022-12-20T22:14:05.876Z,82.38
2022-12-20T22:16:34.450Z,82.46
2022-12-20T22:19:03.331Z,82.55
2022-12-20T22:21:33.569Z,82.56
2022-12-20T22:24:01.241Z,82.56
2022-12-20T22:26:32.379Z,82.54
2022-12-20T22:29:06.613Z,82.42
2022-12-20T22:31:37.672Z,82.37
2022-12-20T22:34:06.333Z,82.34
2022-12-20T22:36:35.267Z,82.45
2022-12-20T22:39:03.303Z,82.38
2022-12-20T22:41:34.252Z,82.34
2022-12-20T22:44:04.451Z,82.39
2022-12-20T22:46:33.171Z,82.39
2022-12-20T22:49:01.144Z,82.40
2022-12-20T22:51:30.311Z,82.28
2022-12-20T22:53:59.055Z,82.35
2022-12-20T22:56:27.406Z,82.38
2022-12-20T22:58:55.460Z,82.37
2022-12-20T23:01:23.504Z,82.17
2022-12-20T23:03:51.525Z,82.14
2022-12-20T23:06:20.915Z,82.14
2022-12-20T23:08:49.114Z,82.21
2022-12-20T23:11:42.504Z,82.27
2022-12-20T23:14:36.043Z,82.30
2022-12-20T23:17:05.566Z,82.31
2022-12-20T23:19:52.299Z,82.33
2022-12-20T23:22:40.458Z,82.25
2022-12-20T23:25:15.577Z,82.21
2022-12-20T23:27:46.035Z,82.16
2022-12-20T23:30:17.812Z,82.22
2022-12-20T23:32:45.688Z,82.33
2022-12-20T23:35:16.709Z,82.37
2022-12-20T23:37:45.293Z,82.46
2022-12-20T23:40:15.765Z,82.41
2022-12-20T23:42:44.168Z,82.47
2022-12-20T23:45:12.568Z,82.40
2022-12-20T23:47:40.243Z,82.35
2022-12-20T23:50:08.948Z,82.45
2022-12-20T23:52:36.622Z,82.49
2022-12-20T23:55:05.336Z,82.54
2022-12-20T23:57:33.013Z,82.54
